Time;durP1;ratioP1;P1;durP2;ratioP2;P2;SDS_P1;SDS_P2;PMS_P1;PMS_P2;Temp;Humidity;BMP_temperature;BMP_pressure;BME280_temperature;BME280_humidity;BME280_pressure;Samples;Min_cycle;Max_cycle;Signal;HPM_P1;HPM_P2
2023/06/11 00:01:35;;;;;;;3.65;2.53;;;;;;;21.05;72.08;100409.81;4976602;28;20050;-79
2023/06/11 00:04:24;;;;;;;8.48;3.80;;;;;;;20.92;70.92;100406.66;4975092;28;20537;-79
2023/06/11 00:07:09;;;;;;;9.10;2.72;;;;;;;20.97;71.25;100418.50;4978501;28;20054;-79
2023/06/11 00:09:54;;;;;;;6.60;2.38;;;;;;;21.17;69.85;100417.78;4987302;28;20042;-79
2023/06/11 00:12:38;;;;;;;2.65;1.70;;;;;;;21.70;69.63;100414.97;4974715;28;20414;-80
2023/06/11 00:15:23;;;;;;;3.22;1.67;;;;;;;22.13;67.39;100412.94;4972616;28;20049;-81
2023/06/11 00:18:08;;;;;;;4.40;1.98;;;;;;;22.24;66.55;100412.91;4976791;28;20442;-79
2023/06/11 00:20:52;;;;;;;3.33;1.73;;;;;;;22.32;66.44;100414.44;4973285;28;20058;-81
2023/06/11 00:23:37;;;;;;;2.35;2.05;;;;;;;22.00;65.48;100408.22;4979000;28;20065;-81
2023/06/11 00:26:22;;;;;;;3.72;2.85;;;;;;;21.67;65.98;100403.91;4976736;28;20422;-80
2023/06/11 00:29:08;;;;;;;6.57;3.17;;;;;;;21.31;68.02;100397.63;4979554;28;20517;-80
2023/06/11 00:31:54;;;;;;;3.28;2.30;;;;;;;21.28;68.45;100399.19;4973162;28;20066;-80
2023/06/11 00:34:39;;;;;;;2.47;1.90;;;;;;;21.45;67.48;100410.66;4977460;28;20054;-79
2023/06/11 00:37:24;;;;;;;5.80;2.35;;;;;;;21.49;66.98;100403.13;4975066;28;20054;-80
2023/06/11 00:40:09;;;;;;;4.00;2.58;;;;;;;21.70;67.30;100408.66;4973137;28;20109;-80
2023/06/11 00:42:54;;;;;;;2.88;1.50;;;;;;;21.73;68.26;100413.41;4973671;28;20406;-81
2023/06/11 00:45:41;;;;;;;2.50;1.90;;;;;;;21.82;67.43;100405.47;4975289;28;20049;-80
2023/06/11 00:48:26;;;;;;;5.97;2.17;;;;;;;21.67;66.90;100406.69;4973012;28;20050;-81
2023/06/11 00:51:11;;;;;;;2.45;2.13;;;;;;;21.65;66.33;100398.78;4977269;28;20046;-81
2023/06/11 00:53:55;;;;;;;5.07;2.10;;;;;;;21.33;67.45;100398.78;4975482;28;20077;-81
2023/06/11 00:56:41;;;;;;;5.05;2.22;;;;;;;21.26;67.46;100396.03;4973159;28;20049;-79
2023/06/11 00:59:25;;;;;;;2.38;1.80;;;;;;;21.30;67.79;100394.06;4977580;28;20065;-82
2023/06/11 01:02:17;;;;;;;3.28;1.67;;;;;;;21.41;69.11;100398.81;4975063;28;20065;-80
2023/06/11 01:05:05;;;;;;;1.90;1.40;;;;;;;21.63;67.05;100394.84;4972803;28;20057;-81
2023/06/11 01:07:52;;;;;;;9.68;2.00;;;;;;;21.61;68.03;100397.19;4972257;28;20050;-81
2023/06/11 01:10:45;;;;;;;;;;;;;;;21.63;67.59;100403.94;4975003;28;20050;-80
2023/06/11 01:13:30;;;;;;;5.20;1.92;;;;;;;21.99;66.75;100399.09;4973587;28;19918;-80
2023/06/11 01:16:28;;;;;;;2.83;1.50;;;;;;;22.01;66.73;100399.50;4976587;28;20046;-81
2023/06/11 01:19:18;;;;;;;2.95;1.70;;;;;;;22.17;65.27;100401.84;4974310;28;20589;-81
2023/06/11 01:22:29;;;;;;;5.55;2.10;;;;;;;22.03;66.54;100397.16;4975242;28;20053;-79
2023/06/11 01:25:32;;;;;;;10.75;2.72;;;;;;;22.12;65.42;100393.94;4974744;28;20065;-80
2023/06/11 01:28:24;;;;;;;5.55;2.50;;;;;;;22.07;64.75;100392.38;4981033;28;20046;-79
2023/06/11 01:31:14;;;;;;;12.77;1.80;;;;;;;22.23;65.61;100397.47;4979533;28;20046;-79
2023/06/11 01:34:01;;;;;;;3.58;2.30;;;;;;;21.86;66.16;100397.94;4977499;28;20050;-80
2023/06/11 01:36:49;;;;;;;2.75;1.92;;;;;;;22.13;65.72;100393.53;4981079;28;20054;-80
2023/06/11 01:39:33;;;;;;;;;;;;;;;21.92;66.96;100395.56;4977014;28;20406;-79
2023/06/11 01:42:22;;;;;;;3.90;2.65;;;;;;;21.64;66.48;100396.38;4977655;28;19914;-80
2023/06/11 01:45:07;;;;;;;4.40;2.33;;;;;;;21.45;66.81;100389.31;4981116;28;20061;-80
2023/06/11 01:47:53;;;;;;;4.75;2.70;;;;;;;21.44;67.58;100381.41;4989464;28;20049;-79
2023/06/11 01:50:38;;;;;;;4.68;2.20;;;;;;;21.44;67.16;100373.88;4977685;28;20069;-79
2023/06/11 01:53:24;;;;;;;11.05;3.10;;;;;;;21.58;66.07;100367.56;4981010;28;20418;-79
2023/06/11 01:56:10;;;;;;;5.60;2.38;;;;;;;21.56;66.62;100364.41;4965356;28;20070;-80
2023/06/11 01:58:57;;;;;;;5.13;3.38;;;;;;;21.70;66.51;100367.13;4977438;28;20426;-79
2023/06/11 02:01:43;;;;;;;7.68;2.95;;;;;;;21.56;66.70;100367.16;5042470;22;20045;-82
2023/06/11 02:04:28;;;;;;;5.47;2.60;;;;;;;21.33;67.77;100371.13;5001413;28;20061;-84
2023/06/11 02:07:13;;;;;;;3.65;2.80;;;;;;;21.27;67.96;100360.88;4999695;28;20065;-83
2023/06/11 02:09:58;;;;;;;2.97;2.60;;;;;;;21.50;67.35;100364.00;4999068;28;20058;-83
2023/06/11 02:12:42;;;;;;;8.93;2.90;;;;;;;21.49;67.28;100365.19;5014471;28;20048;-82
2023/06/11 02:15:27;;;;;;;4.47;2.90;;;;;;;21.38;67.45;100361.66;5036264;28;20048;-82
2023/06/11 02:18:11;;;;;;;4.70;2.38;;;;;;;21.34;68.07;100363.63;5029100;28;20072;-82
2023/06/11 02:20:59;;;;;;;7.28;3.63;;;;;;;21.36;68.21;100364.03;5041849;28;20412;-82
2023/06/11 02:23:44;;;;;;;5.82;2.70;;;;;;;21.18;69.18;100369.56;5039868;28;20056;-82
2023/06/11 02:26:28;;;;;;;7.30;2.70;;;;;;;21.27;67.51;100360.88;5037422;28;20051;-81
2023/06/11 02:29:14;;;;;;;13.85;3.15;;;;;;;21.23;67.88;100360.09;5041712;28;20061;-82
2023/06/11 02:31:59;;;;;;;5.60;2.90;;;;;;;21.25;67.06;100369.56;5024836;28;20048;-82
2023/06/11 02:34:44;;;;;;;6.55;3.53;;;;;;;21.17;67.46;100359.69;5029891;28;20056;-82
2023/06/11 02:37:29;;;;;;;7.57;2.40;;;;;;;20.74;69.59;100361.59;5041203;28;20057;-82
2023/06/11 02:40:14;;;;;;;4.60;2.58;;;;;;;20.63;69.17;100369.06;5025778;28;20052;-82
2023/06/11 02:42:59;;;;;;;2.85;1.80;;;;;;;20.75;69.54;100370.69;5024488;28;20580;-82
2023/06/11 02:45:44;;;;;;;3.50;2.35;;;;;;;21.01;66.82;100358.47;5042273;28;20412;-82
2023/06/11 02:48:29;;;;;;;6.70;2.85;;;;;;;20.98;66.22;100360.03;5039913;28;20048;-81
2023/06/11 02:51:14;;;;;;;4.75;1.98;;;;;;;20.96;65.52;100351.38;5037492;28;20049;-82
2023/06/11 02:53:59;;;;;;;3.97;2.03;;;;;;;20.87;66.65;100359.25;5041866;28;20049;-83
2023/06/11 02:56:44;;;;;;;10.57;2.53;;;;;;;20.85;68.81;100358.84;5025967;28;20052;-82
2023/06/11 02:59:29;;;;;;;3.38;1.60;;;;;;;21.16;68.82;100360.09;5038298;28;20780;-82
2023/06/11 03:02:14;;;;;;;6.72;2.13;;;;;;;20.97;66.00;100352.94;5037902;28;20240;-82
2023/06/11 03:04:59;;;;;;;4.53;2.35;;;;;;;20.91;66.31;100360.84;5026369;28;20052;-82
2023/06/11 03:07:44;;;;;;;5.60;2.30;;;;;;;21.06;65.05;100358.09;5038170;28;20060;-82
2023/06/11 03:10:30;;;;;;;4.68;2.28;;;;;;;21.17;64.04;100358.91;5042624;28;20052;-82
2023/06/11 03:13:14;;;;;;;1.75;1.58;;;;;;;20.86;65.80;100357.69;5038354;28;20056;-82
2023/06/11 03:16:02;;;;;;;3.97;2.22;;;;;;;21.07;65.55;100349.41;5038432;28;20053;-82
2023/06/11 03:18:46;;;;;;;5.03;2.03;;;;;;;21.09;64.85;100354.50;5042196;28;20052;-81
2023/06/11 03:21:32;;;;;;;3.78;2.20;;;;;;;21.05;65.17;100350.97;5040407;28;20056;-81
2023/06/11 03:24:17;;;;;;;6.68;2.65;;;;;;;21.02;65.84;100354.53;5038018;28;20052;-81
2023/06/11 03:27:01;;;;;;;3.63;2.17;;;;;;;20.67;66.88;100358.06;5041340;28;20048;-81
2023/06/11 03:29:47;;;;;;;3.45;1.85;;;;;;;20.49;68.25;100361.56;5039943;28;20523;-81
2023/06/11 03:32:31;;;;;;;8.50;2.33;;;;;;;20.79;66.63;100354.88;5023088;28;20512;-82
2023/06/11 03:35:17;;;;;;;3.33;2.10;;;;;;;21.02;65.27;100354.53;5041519;28;20111;-81
2023/06/11 03:38:02;;;;;;;6.78;1.85;;;;;;;21.07;65.72;100362.44;5036683;28;20049;-82
2023/06/11 03:40:47;;;;;;;5.72;2.30;;;;;;;20.53;68.51;100360.75;5023718;28;20049;-82
2023/06/11 03:43:33;;;;;;;4.28;2.28;;;;;;;20.12;70.48;100362.97;5041038;28;20072;-82
2023/06/11 03:46:21;;;;;;;4.13;2.88;;;;;;;19.78;70.93;100359.66;5039482;28;20052;-82
2023/06/11 03:49:05;;;;;;;2.92;2.40;;;;;;;19.70;71.83;100363.56;5023171;28;20049;-81
2023/06/11 03:51:50;;;;;;;3.47;2.08;;;;;;;19.68;71.85;100371.41;5036572;28;20052;-82
2023/06/11 03:54:35;;;;;;;2.45;2.00;;;;;;;20.00;70.24;100361.34;5026318;28;20052;-81
2023/06/11 03:57:21;;;;;;;9.60;3.88;;;;;;;20.14;68.46;100366.94;5038254;28;20416;-82
2023/06/11 04:00:07;;;;;;;9.63;2.53;;;;;;;20.37;67.70;100364.66;5028029;28;20048;-83
2023/06/11 04:02:59;;;;;;;6.18;2.28;;;;;;;20.49;68.01;100372.59;5036589;28;20052;-82
2023/06/11 04:05:46;;;;;;;3.33;2.13;;;;;;;20.51;67.87;100374.97;5024536;28;20048;-83
2023/06/11 04:08:31;;;;;;;12.02;3.20;;;;;;;20.34;67.83;100367.41;5035643;28;20531;-82
2023/06/11 04:11:16;;;;;;;5.63;3.25;;;;;;;20.15;69.46;100379.56;5039832;28;20056;-83
2023/06/11 04:14:01;;;;;;;3.70;3.05;;;;;;;19.77;71.37;100377.38;5037983;28;20048;-83
2023/06/11 04:16:46;;;;;;;;;;;;;;;19.79;71.86;100375.81;5037226;28;20052;-82
2023/06/11 04:19:31;;;;;;;3.17;2.20;;;;;;;19.78;73.11;100381.72;5037245;28;19912;-83
2023/06/11 04:22:16;;;;;;;4.50;2.28;;;;;;;19.71;72.91;100379.69;5037785;28;20047;-81
2023/06/11 04:25:01;;;;;;;4.70;3.00;;;;;;;19.92;70.96;100387.31;5037011;28;20515;-83
2023/06/11 04:27:49;;;;;;;4.10;3.05;;;;;;;19.83;71.87;100387.66;5026190;28;20527;-83
2023/06/11 04:30:33;;;;;;;7.45;3.15;;;;;;;19.68;71.77;100391.53;5036771;28;20048;-83
2023/06/11 04:33:19;;;;;;;6.32;3.33;;;;;;;19.62;72.49;100391.09;5016387;28;20064;-82
2023/06/11 04:36:08;;;;;;;7.03;3.45;;;;;;;19.64;72.35;100393.47;5020419;28;20056;-82
2023/06/11 04:38:54;;;;;;;5.40;2.65;;;;;;;19.90;72.04;100386.94;5018700;28;20045;-82
2023/06/11 04:41:39;;;;;;;3.10;2.78;;;;;;;20.05;71.73;100396.88;5002966;28;20048;-82
2023/06/11 04:44:25;;;;;;;6.78;3.30;;;;;;;20.11;71.55;100389.78;5006259;28;20254;-82
2023/06/11 04:47:12;;;;;;;4.22;3.22;;;;;;;20.21;71.31;100397.34;5017884;28;20056;-83
2023/06/11 04:50:02;;;;;;;8.02;3.35;;;;;;;20.21;71.63;100394.56;5015508;28;20085;-82
2023/06/11 04:52:51;;;;;;;11.10;3.65;;;;;;;20.25;71.84;100389.84;4996870;28;20049;-82
2023/06/11 04:55:38;;;;;;;7.88;2.95;;;;;;;20.28;72.17;100394.59;5011432;28;20045;-83
2023/06/11 04:58:27;;;;;;;10.55;3.08;;;;;;;20.40;72.90;100390.72;4999718;28;20053;-82
2023/06/11 05:01:12;;;;;;;6.93;2.53;;;;;;;20.65;70.55;100391.59;5016667;28;20064;-82
2023/06/11 05:03:58;;;;;;;4.82;2.70;;;;;;;20.68;70.36;100395.53;5016926;28;20053;-83
2023/06/11 05:06:44;;;;;;;12.60;3.28;;;;;;;20.83;67.74;100389.63;5002274;28;20065;-82
2023/06/11 05:09:31;;;;;;;4.97;2.85;;;;;;;20.81;68.58;100396.75;5001415;28;20085;-82
2023/06/11 05:12:16;;;;;;;5.70;2.53;;;;;;;20.95;68.48;100390.44;4998254;28;20057;-82
2023/06/11 05:15:01;;;;;;;5.75;2.65;;;;;;;21.06;66.38;100397.59;4981917;28;20058;-82
2023/06/11 05:17:46;;;;;;;3.03;2.35;;;;;;;20.87;67.83;100404.28;4999132;28;20053;-82
2023/06/11 05:20:32;;;;;;;3.75;2.65;;;;;;;20.96;67.72;100409.41;4998552;28;20058;-83
2023/06/11 05:23:18;;;;;;;3.85;2.75;;;;;;;21.01;67.25;100403.50;4995093;28;20049;-82
2023/06/11 05:26:11;;;;;;;4.60;3.10;;;;;;;20.62;67.07;100403.41;4986967;28;20041;-82
2023/06/11 05:28:57;;;;;;;3.63;2.72;;;;;;;20.68;67.75;100395.53;4984134;28;20049;-82
2023/06/11 05:31:42;;;;;;;3.85;2.65;;;;;;;20.70;67.80;100405.03;4995699;28;20068;-81
2023/06/11 05:34:30;;;;;;;4.50;2.88;;;;;;;20.89;68.72;100412.16;4999398;28;20057;-82
2023/06/11 05:37:19;;;;;;;3.90;2.20;;;;;;;21.12;68.23;100414.56;4983639;28;20053;-81
2023/06/11 05:40:06;;;;;;;6.47;2.70;;;;;;;21.28;66.06;100407.47;4996220;28;20405;-82
2023/06/11 05:42:51;;;;;;;5.15;2.80;;;;;;;21.24;65.71;100403.13;4996901;28;20050;-81
2023/06/11 05:45:36;;;;;;;2.83;2.50;;;;;;;21.53;63.46;100401.19;4998679;28;20049;-82
2023/06/11 05:48:22;;;;;;;10.73;2.92;;;;;;;21.69;64.86;100409.81;4999266;28;20054;-81
2023/06/11 05:51:07;;;;;;;9.60;2.42;;;;;;;21.72;64.54;100409.03;5008007;28;20053;-83
2023/06/11 05:53:52;;;;;;;4.03;2.15;;;;;;;22.03;64.24;100419.28;5006126;28;20053;-82
2023/06/11 05:56:37;;;;;;;3.17;2.22;;;;;;;22.01;63.98;100418.09;5004503;28;20053;-82
2023/06/11 05:59:23;;;;;;;3.03;2.00;;;;;;;22.33;62.16;100412.47;5006298;28;20049;-84
2023/06/11 06:02:08;;;;;;;4.93;2.38;;;;;;;22.41;60.63;100411.22;4990278;28;20045;-84
2023/06/11 06:04:55;;;;;;;4.68;2.20;;;;;;;22.42;61.45;100416.38;5002425;28;20057;-83
2023/06/11 06:07:39;;;;;;;2.83;1.73;;;;;;;22.42;61.56;100412.81;5009146;28;20053;-82
2023/06/11 06:10:25;;;;;;;5.82;2.08;;;;;;;22.63;61.69;100421.03;5010016;28;20056;-84
2023/06/11 06:13:10;;;;;;;4.40;2.38;;;;;;;22.57;61.87;100417.88;5025434;28;20049;-83
2023/06/11 06:15:56;;;;;;;6.60;2.22;;;;;;;22.71;60.89;100425.34;5016963;28;20064;-82
2023/06/11 06:18:44;;;;;;;3.60;2.00;;;;;;;22.67;60.41;100423.78;5026457;28;20053;-82
2023/06/11 06:21:29;;;;;;;3.85;2.10;;;;;;;22.20;61.86;100422.41;5021689;28;20129;-83
2023/06/11 06:24:14;;;;;;;3.50;2.00;;;;;;;22.61;60.89;100426.97;5031121;28;20056;-83
2023/06/11 06:27:00;;;;;;;10.32;2.33;;;;;;;22.78;60.22;100419.00;5004972;28;20517;-81
2023/06/11 06:29:49;;;;;;;6.03;2.38;;;;;;;22.22;61.64;100420.81;5016446;28;20041;-82
2023/06/11 06:32:36;;;;;;;7.20;3.20;;;;;;;22.51;61.73;100410.38;5027380;28;20061;-81
2023/06/11 06:35:21;;;;;;;6.90;3.50;;;;;;;22.36;61.58;100420.75;5027030;28;20049;-83
2023/06/11 06:38:06;;;;;;;8.02;3.78;;;;;;;21.87;62.60;100418.91;5018971;28;20056;-85
2023/06/11 06:40:53;;;;;;;76.93;18.80;;;;;;;22.39;62.03;100425.50;5010946;28;20048;-83
2023/06/11 06:43:38;;;;;;;23.90;6.20;;;;;;;22.39;59.45;100421.94;5020530;28;20045;-82
2023/06/11 06:46:30;;;;;;;31.42;7.90;;;;;;;22.35;60.81;100424.72;5018129;28;20049;-82
2023/06/11 06:49:15;;;;;;;11.07;4.28;;;;;;;22.48;60.86;100427.84;5021804;28;20061;-82
2023/06/11 06:52:00;;;;;;;9.23;2.72;;;;;;;22.80;60.86;100434.03;5019897;28;20049;-83
2023/06/11 06:54:48;;;;;;;5.35;2.83;;;;;;;22.80;60.97;100428.50;5018356;28;20488;-83
2023/06/11 06:57:33;;;;;;;6.00;3.45;;;;;;;22.94;60.32;100430.38;5021294;28;20044;-83
2023/06/11 07:00:19;;;;;;;6.30;2.53;;;;;;;23.21;59.23;100434.16;5019833;28;20041;-84
2023/06/11 07:25:49;;;;;;;4.15;3.08;;;;;;;23.36;59.67;100427.31;5087229;27;1475230;-82
2023/06/11 07:28:35;;;;;;;5.15;2.85;;;;;;;23.75;57.79;100427.00;5088738;28;20040;-81
2023/06/11 07:31:20;;;;;;;4.10;3.17;;;;;;;23.70;58.48;100430.22;5088856;28;20403;-82
2023/06/11 07:34:06;;;;;;;5.03;4.00;;;;;;;23.52;59.42;100435.13;5082111;28;20056;-82
2023/06/11 07:36:51;;;;;;;5.57;3.42;;;;;;;23.55;58.85;100427.97;5063655;28;20068;-81
2023/06/11 07:39:36;;;;;;;4.28;3.47;;;;;;;23.33;60.16;100428.13;5075524;22;20057;-83
2023/06/11 07:42:21;;;;;;;5.80;3.50;;;;;;;23.57;60.27;100423.56;5032418;28;20057;-82
2023/06/11 07:45:07;;;;;;;4.85;4.05;;;;;;;23.61;59.11;100431.88;5034413;28;20056;-80
2023/06/11 07:47:53;;;;;;;5.78;3.60;;;;;;;23.56;58.21;100430.34;5004371;28;20052;-82
2023/06/11 07:50:39;;;;;;;9.32;3.58;;;;;;;23.71;57.97;100426.25;5026422;28;20049;-79
2023/06/11 07:53:24;;;;;;;4.30;3.30;;;;;;;23.83;56.79;100431.25;5020431;28;20042;-83
2023/06/11 07:56:10;;;;;;;6.03;2.83;;;;;;;23.96;56.76;100425.19;5011459;28;20077;-82
2023/06/11 07:58:54;;;;;;;;;;;;;;;23.96;56.32;100425.97;4996824;28;20422;-82
2023/06/11 08:01:39;;;;;;;3.63;2.95;;;;;;;23.94;56.56;100427.59;5008556;28;19914;-83
2023/06/11 08:04:25;;;;;;;4.93;3.75;;;;;;;23.92;57.49;100424.44;5007794;28;20049;-83
2023/06/11 08:07:10;;;;;;;4.53;3.33;;;;;;;24.08;55.50;100428.22;5023535;28;20523;-81
2023/06/11 08:09:55;;;;;;;4.50;3.00;;;;;;;24.25;55.00;100423.69;5011927;28;20045;-81
2023/06/11 08:12:41;;;;;;;5.20;3.47;;;;;;;24.25;54.18;100420.91;5009339;28;20049;-82
2023/06/11 08:15:26;;;;;;;9.25;3.22;;;;;;;24.32;54.86;100420.84;5020319;28;20045;-83
2023/06/11 08:18:11;;;;;;;5.55;2.83;;;;;;;24.48;55.18;100423.03;5028788;28;20052;-82
2023/06/11 08:20:56;;;;;;;5.97;3.38;;;;;;;24.43;54.77;100421.47;5037006;28;20283;-81
2023/06/11 08:23:41;;;;;;;5.32;3.40;;;;;;;24.55;54.49;100426.50;5018132;28;20048;-83
2023/06/11 08:26:33;;;;;;;4.93;2.95;;;;;;;24.63;54.76;100419.66;5010189;28;20118;-83
2023/06/11 08:29:17;;;;;;;7.10;3.97;;;;;;;24.68;52.57;100421.97;5016815;28;20409;-83
2023/06/11 08:32:05;;;;;;;;;;;;;;;24.79;52.76;100423.81;5042034;28;20064;-82
2023/06/11 08:34:50;;;;;;;3.60;2.70;;;;;;;24.83;52.44;100421.75;5035810;28;20365;-82
2023/06/11 08:37:34;;;;;;;;;;;;;;;24.95;51.83;100418.41;5027577;28;20052;-82
2023/06/11 08:40:20;;;;;;;3.17;2.47;;;;;;;24.97;50.09;100416.78;5047302;28;19913;-83
2023/06/11 08:43:05;;;;;;;7.55;3.15;;;;;;;24.87;50.30;100419.69;5055630;28;20072;-81
2023/06/11 08:45:50;;;;;;;6.30;3.20;;;;;;;25.02;51.48;100421.09;5042117;28;20052;-82
2023/06/11 08:48:40;;;;;;;4.20;1.83;;;;;;;24.90;52.35;100425.25;5029806;28;20052;-85
2023/06/11 08:51:27;;;;;;;3.17;2.03;;;;;;;24.84;52.70;100420.56;5046870;28;20044;-81
2023/06/11 08:54:12;;;;;;;6.07;2.88;;;;;;;24.97;52.22;100421.56;5039830;28;20052;-83
2023/06/11 08:56:57;;;;;;;6.00;3.10;;;;;;;24.99;52.29;100424.72;5020793;28;20549;-82
2023/06/11 08:59:42;;;;;;;4.85;3.72;;;;;;;25.24;52.53;100421.56;5017132;28;20048;-81
2023/06/11 09:02:27;;;;;;;;;;;;;;;25.02;52.70;100427.44;5033869;28;20517;-83
2023/06/11 09:05:12;;;;;;;3.20;2.58;;;;;;;24.91;53.07;100426.03;5031171;28;19913;-82
2023/06/11 09:07:57;;;;;;;3.67;2.78;;;;;;;25.17;51.75;100425.25;5025267;28;20052;-79
2023/06/11 09:10:51;;;;;;;3.08;1.83;;;;;;;24.86;53.14;100424.47;5027056;28;20053;-83
2023/06/11 09:13:35;;;;;;;10.05;3.55;;;;;;;25.11;54.40;100433.28;5026519;28;20048;-81
2023/06/11 09:16:20;;;;;;;5.93;2.35;;;;;;;25.65;51.39;100429.66;5012875;28;20049;-81
2023/06/11 09:19:05;;;;;;;;;;;;;;;25.72;49.68;100429.50;5005609;28;20082;-82
2023/06/11 09:21:52;;;;;;;2.35;1.77;;;;;;;25.91;46.37;100428.75;5010953;28;19912;-83
2023/06/11 09:24:38;;;;;;;2.88;1.77;;;;;;;25.89;46.70;100436.78;5026159;28;20044;-84
2023/06/11 09:27:23;;;;;;;3.10;1.38;;;;;;;25.54;48.75;100436.16;5026614;28;20068;-84
2023/06/11 09:30:08;;;;;;;;;;;;;;;25.37;49.33;100434.44;5007113;28;20048;-84
2023/06/11 09:32:53;;;;;;;1.70;1.20;;;;;;;25.30;49.21;100434.56;5006555;28;20397;-83
2023/06/11 09:35:44;;;;;;;2.58;1.80;;;;;;;25.11;50.91;100433.28;5005749;28;20076;-83
2023/06/11 09:38:34;;;;;;;4.00;1.30;;;;;;;25.03;50.70;100433.81;4999991;28;20045;-82
2023/06/11 09:41:18;;;;;;;4.68;2.30;;;;;;;25.70;47.54;100434.75;4992548;28;20044;-82
2023/06/11 09:44:07;;;;;;;1.70;1.30;;;;;;;25.55;48.81;100426.59;4992378;28;20052;-83
2023/06/11 09:46:52;;;;;;;1.90;1.20;;;;;;;25.47;48.32;100427.91;5018919;28;20425;-82
2023/06/11 09:49:40;;;;;;;2.40;1.10;;;;;;;25.28;50.14;100425.84;5012472;28;20048;-84
2023/06/11 09:52:26;;;;;;;1.90;1.10;;;;;;;25.19;49.85;100422.84;5019081;28;20052;-83
2023/06/11 09:55:12;;;;;;;2.10;1.65;;;;;;;26.20;47.24;100429.81;5024737;28;20418;-81
2023/06/11 09:57:57;;;;;;;17.73;2.05;;;;;;;26.14;47.17;100427.94;5022144;28;20060;-82
2023/06/11 10:00:46;;;;;;;1.77;1.20;;;;;;;25.81;48.17;100427.75;5009988;28;20532;-82
2023/06/11 10:03:31;;;;;;;12.40;1.90;;;;;;;25.86;48.45;100424.47;5002110;28;20048;-79
2023/06/11 10:06:22;;;;;;;3.50;2.15;;;;;;;26.74;44.41;100440.66;5009087;28;20053;-82
2023/06/11 10:09:11;;;;;;;3.78;1.60;;;;;;;26.77;41.81;100439.78;5019003;28;20044;-84
2023/06/11 10:11:57;;;;;;;1.63;1.30;;;;;;;26.62;43.07;100441.28;5004463;28;20472;-83
2023/06/11 10:14:50;;;;;;;1.75;1.60;;;;;;;26.80;43.20;100438.91;5028924;28;20119;-81
2023/06/11 10:17:34;;;;;;;1.83;1.58;;;;;;;26.95;43.00;100440.19;5021276;28;20528;-81
2023/06/11 10:20:35;;;;;;;3.00;1.25;;;;;;;26.88;43.14;100433.97;5031064;28;20410;-83
2023/06/11 10:23:22;;;;;;;6.15;1.30;;;;;;;27.27;43.16;100438.66;4999424;28;20685;-81
2023/06/11 10:26:12;;;;;;;2.45;2.03;;;;;;;30.48;34.72;100430.81;5009654;28;20064;-83
2023/06/11 10:28:57;;;;;;;3.28;2.08;;;;;;;32.37;33.10;100440.69;4995595;28;20048;-83
2023/06/11 10:31:44;;;;;;;3.00;1.77;;;;;;;33.63;30.70;100441.44;5003725;28;20067;-83
2023/06/11 10:34:42;;;;;;;3.30;1.70;;;;;;;37.15;24.81;100450.91;5017755;28;20041;-84
2023/06/11 10:37:31;;;;;;;1.63;1.45;;;;;;;31.60;32.34;100448.47;5010489;28;20057;-84
2023/06/11 10:40:16;;;;;;;2.05;1.40;;;;;;;33.70;29.73;100446.75;5029777;28;20408;-85
2023/06/11 10:43:11;;;;;;;1.58;1.17;;;;;;;34.38;28.30;100451.69;5031148;28;20040;-85
2023/06/11 10:46:12;;;;;;;1.48;1.13;;;;;;;34.55;27.15;100450.72;5021827;28;20040;-85
2023/06/11 10:48:56;;;;;;;2.53;1.25;;;;;;;33.09;29.88;100442.50;4991337;28;20064;-83
2023/06/11 10:51:41;;;;;;;1.85;1.15;;;;;;;31.11;32.49;100442.84;5001209;28;20124;-84
2023/06/11 10:54:32;;;;;;;1.67;1.08;;;;;;;29.39;34.13;100438.25;5014520;28;20116;-83
2023/06/11 10:57:20;;;;;;;1.67;1.15;;;;;;;28.96;36.52;100438.03;5001280;28;20053;-82
2023/06/11 11:00:09;;;;;;;1.35;1.08;;;;;;;28.99;35.50;100431.53;5010173;28;20072;-84
2023/06/11 11:02:55;;;;;;;1.63;1.40;;;;;;;28.18;36.28;100434.75;5017512;28;20076;-82
2023/06/11 11:05:43;;;;;;;1.38;1.27;;;;;;;29.31;35.15;100436.91;5010333;28;20048;-84
2023/06/11 11:08:28;;;;;;;2.50;1.40;;;;;;;28.02;38.41;100433.53;5007339;28;20064;-83
2023/06/11 11:11:13;;;;;;;1.80;1.30;;;;;;;28.46;36.93;100428.31;5017578;28;20057;-84
2023/06/11 11:13:59;;;;;;;3.67;2.30;;;;;;;27.91;37.62;100427.44;5023926;28;20041;-83
2023/06/11 11:16:48;;;;;;;7.40;1.85;;;;;;;28.18;37.05;100429.16;5017655;28;20080;-84
2023/06/11 11:19:34;;;;;;;2.10;1.33;;;;;;;29.25;35.28;100419.88;5015160;28;20057;-83
2023/06/11 11:22:19;;;;;;;1.77;1.38;;;;;;;32.29;31.18;100431.00;5024588;28;20056;-84
2023/06/11 11:25:05;;;;;;;3.28;1.35;;;;;;;33.67;27.85;100425.13;5023622;28;20072;-84
2023/06/11 11:27:50;;;;;;;1.45;1.02;;;;;;;30.64;33.42;100423.41;5008795;28;20068;-84
2023/06/11 11:30:35;;;;;;;1.92;1.10;;;;;;;29.87;34.40;100417.38;5003097;28;20053;-84
2023/06/11 11:33:20;;;;;;;4.47;1.42;;;;;;;29.42;34.91;100411.34;4990525;28;20426;-83
2023/06/11 11:36:06;;;;;;;2.10;1.50;;;;;;;29.27;35.51;100414.59;5018125;28;20053;-84
2023/06/11 11:38:51;;;;;;;3.67;1.40;;;;;;;28.48;38.11;100414.69;4986559;28;20049;-84
2023/06/11 11:41:54;;;;;;;1.92;1.63;;;;;;;28.08;38.34;100405.81;4990657;28;20052;-85
2023/06/11 11:44:40;;;;;;;4.43;1.65;;;;;;;27.79;38.89;100403.00;4990237;28;20049;-85
2023/06/11 11:47:27;;;;;;;2.67;1.55;;;;;;;27.86;39.06;100400.03;4998825;28;20049;-86
2023/06/11 11:50:21;;;;;;;1.92;1.33;;;;;;;27.81;39.25;100400.56;5022137;28;20052;-84
2023/06/11 11:53:13;;;;;;;1.93;1.50;;;;;;;27.72;39.49;100388.47;5009640;28;20127;-84
2023/06/11 11:55:58;;;;;;;3.42;1.27;;;;;;;27.51;39.37;100398.19;5017299;28;20607;-85
2023/06/11 11:58:44;;;;;;;2.30;1.40;;;;;;;27.45;39.46;100391.53;5019787;28;20556;-85
2023/06/11 12:01:36;;;;;;;3.28;1.75;;;;;;;27.36;39.10;100392.16;5008979;28;20048;-85
2023/06/11 12:04:22;;;;;;;5.07;1.90;;;;;;;26.91;41.60;100385.69;5005442;28;20040;-84
2023/06/11 12:07:20;;;;;;;3.58;2.08;;;;;;;26.78;42.29;100391.13;5015294;28;20420;-85
2023/06/11 12:10:05;;;;;;;4.50;2.25;;;;;;;26.41;43.80;100386.78;5041780;28;20043;-85
2023/06/11 12:12:50;;;;;;;5.47;2.03;;;;;;;26.35;43.65;100375.34;5039822;28;20052;-85
2023/06/11 12:15:35;;;;;;;2.97;1.80;;;;;;;26.50;43.16;100375.03;5024390;28;20048;-84
2023/06/11 12:18:20;;;;;;;4.57;2.03;;;;;;;26.44;43.48;100374.75;5002290;28;20061;-84
2023/06/11 12:21:05;;;;;;;4.32;1.90;;;;;;;26.38;42.74;100368.91;5026015;28;20067;-83
2023/06/11 12:23:50;;;;;;;2.45;1.80;;;;;;;26.72;42.61;100381.69;5035365;28;20048;-83
2023/06/11 12:26:35;;;;;;;;;;;;;;;26.50;43.40;100380.59;5028999;28;20416;-84
2023/06/11 12:29:19;;;;;;;11.55;2.40;;;;;;;26.42;43.79;100373.59;5026130;28;19913;-83
2023/06/11 12:32:11;;;;;;;4.55;1.63;;;;;;;26.51;44.08;100371.03;5019082;28;20100;-83
2023/06/11 12:34:56;;;;;;;3.00;1.48;;;;;;;26.28;44.63;100369.91;4989224;28;20049;-82
2023/06/11 12:37:42;;;;;;;4.10;1.98;;;;;;;28.42;41.08;100366.88;5000462;28;20052;-83
2023/06/11 12:40:28;;;;;;;1.95;1.63;;;;;;;29.94;35.87;100368.69;5008451;28;20053;-83
2023/06/11 12:43:12;;;;;;;5.30;1.73;;;;;;;31.49;32.89;100367.38;5005586;28;20052;-83
2023/06/11 12:45:57;;;;;;;2.90;1.85;;;;;;;31.81;31.90;100355.53;5001949;28;20532;-82
2023/06/11 12:48:41;;;;;;;5.32;1.58;;;;;;;27.97;40.82;100353.00;5020334;28;20051;-83
2023/06/11 12:51:26;;;;;;;2.65;1.58;;;;;;;29.50;36.97;100357.44;5040080;28;20056;-83
2023/06/11 12:54:13;;;;;;;3.50;1.45;;;;;;;30.59;35.54;100365.84;5031284;28;20041;-85
2023/06/11 12:56:58;;;;;;;4.03;1.90;;;;;;;29.35;36.74;100355.56;5028177;28;20052;-84
2023/06/11 12:59:42;;;;;;;2.65;1.85;;;;;;;29.97;35.57;100359.38;4993313;28;20045;-84
2023/06/11 13:02:27;;;;;;;4.45;1.65;;;;;;;30.21;34.91;100360.47;5015630;28;20052;-83
2023/06/11 13:05:11;;;;;;;2.15;1.67;;;;;;;30.15;34.88;100349.06;4997918;28;20044;-85
2023/06/11 13:07:58;;;;;;;3.20;1.83;;;;;;;29.84;34.31;100364.22;5002518;28;20049;-84
2023/06/11 13:10:43;;;;;;;1.92;1.33;;;;;;;29.32;37.30;100363.63;4999327;28;20064;-85
2023/06/11 13:13:29;;;;;;;2.70;1.60;;;;;;;28.93;38.44;100355.72;5004159;28;20052;-84
2023/06/11 13:16:13;;;;;;;2.92;1.67;;;;;;;28.49;39.00;100351.91;5003908;28;20429;-84
2023/06/11 13:18:59;;;;;;;2.15;1.73;;;;;;;28.66;39.11;100353.34;4997270;28;20517;-84